createdAt,value
2023-01-10T04:01:59.980Z,4.90
2023-01-10T04:04:27.453Z,4.50
2023-01-10T04:06:54.751Z,4.90
2023-01-10T04:09:22.146Z,4.70
2023-01-10T04:11:49.350Z,4.50
2023-01-10T04:14:16.547Z,4.57
2023-01-10T04:16:43.976Z,5.97
2023-01-10T04:19:11.124Z,4.70
2023-01-10T04:21:38.285Z,4.63
2023-01-10T04:24:05.668Z,4.70
2023-01-10T04:26:32.942Z,4.73
2023-01-10T04:29:00.472Z,4.70
2023-01-10T04:31:27.660Z,4.73
2023-01-10T04:33:54.923Z,5.13
2023-01-10T04:36:23.692Z,4.20
2023-01-10T04:38:50.849Z,4.40
2023-01-10T04:41:18.038Z,4.60
2023-01-10T04:43:45.266Z,4.40
2023-01-10T04:46:12.406Z,3.80
2023-01-10T04:48:39.560Z,4.50
2023-01-10T04:51:06.705Z,4.30
2023-01-10T04:53:34.010Z,4.50
2023-01-10T04:56:08.337Z,4.40
2023-01-10T04:58:36.789Z,4.50
2023-01-10T05:01:09.221Z,4.20
2023-01-10T05:03:37.028Z,4.70
2023-01-10T05:06:05.335Z,4.47
2023-01-10T05:08:32.895Z,4.30
2023-01-10T05:11:00.343Z,3.60
2023-01-10T05:13:27.764Z,4.30
2023-01-10T05:15:56.515Z,4.13
2023-01-10T05:18:28.098Z,6.63
2023-01-10T05:21:02.585Z,5.07
2023-01-10T05:23:29.915Z,4.50
2023-01-10T05:25:57.270Z,4.30
2023-01-10T05:28:24.682Z,4.50
2023-01-10T05:30:51.852Z,4.63
2023-01-10T05:33:18.981Z,4.83
2023-01-10T05:35:46.191Z,4.10
2023-01-10T05:38:13.504Z,3.87
2023-01-10T05:40:40.668Z,3.90
2023-01-10T05:43:07.849Z,3.90
2023-01-10T05:45:35.099Z,4.40
2023-01-10T05:48:02.252Z,4.47
2023-01-10T05:50:29.866Z,4.77
2023-01-10T05:53:03.561Z,4.50
2023-01-10T05:55:30.698Z,4.40
2023-01-10T05:57:57.886Z,4.57
2023-01-10T06:00:28.173Z,4.30
2023-01-10T06:02:56.613Z,4.43
2023-01-10T06:05:25.131Z,4.50
2023-01-10T06:07:52.373Z,4.60
2023-01-10T06:10:19.504Z,4.63
2023-01-10T06:12:49.666Z,4.53
2023-01-10T06:15:17.338Z,4.90
2023-01-10T06:17:45.569Z,4.63
2023-01-10T06:20:14.880Z,4.77
2023-01-10T06:22:43.093Z,6.13
2023-01-10T06:25:11.949Z,4.50
2023-01-10T06:27:43.390Z,5.53
2023-01-10T06:30:13.166Z,5.20
2023-01-10T06:32:41.088Z,5.27
2023-01-10T06:35:08.998Z,4.90
2023-01-10T06:37:36.312Z,5.00
2023-01-10T06:40:04.321Z,4.93
2023-01-10T06:42:31.583Z,5.33
2023-01-10T06:44:58.684Z,5.50
2023-01-10T06:47:26.025Z,4.40
2023-01-10T06:49:53.319Z,5.10
2023-01-10T06:52:20.678Z,4.83
2023-01-10T06:54:49.062Z,4.97
2023-01-10T06:57:16.744Z,4.40
2023-01-10T06:59:43.892Z,4.57
2023-01-10T07:02:12.101Z,4.30
2023-01-10T07:04:39.358Z,4.40
2023-01-10T07:07:06.922Z,4.30
2023-01-10T07:09:34.093Z,4.77
2023-01-10T07:12:01.218Z,5.00
2023-01-10T07:14:28.418Z,4.93
2023-01-10T07:16:55.707Z,4.70
2023-01-10T07:19:22.950Z,4.50
2023-01-10T07:21:50.143Z,4.67
2023-01-10T07:24:17.340Z,4.70
2023-01-10T07:26:44.493Z,4.80
2023-01-10T07:29:11.705Z,4.70
2023-01-10T07:31:38.890Z,4.77
2023-01-10T07:34:06.216Z,4.43
2023-01-10T07:36:37.888Z,5.33
2023-01-10T07:39:06.547Z,4.97
2023-01-10T07:41:33.739Z,5.37
2023-01-10T07:44:00.919Z,5.50
2023-01-10T07:46:28.211Z,5.30
2023-01-10T07:48:55.339Z,5.43
2023-01-10T07:51:22.493Z,5.23
2023-01-10T07:53:49.661Z,5.67
2023-01-10T07:56:16.796Z,5.40
2023-01-10T07:58:46.221Z,5.57
2023-01-10T08:01:13.384Z,5.90
2023-01-10T08:03:40.931Z,5.73
2023-01-10T08:06:11.109Z,5.20
2023-01-10T08:08:38.980Z,5.40
2023-01-10T08:11:06.327Z,5.30
2023-01-10T08:13:33.921Z,5.67
2023-01-10T08:16:05.673Z,5.80
2023-01-10T08:18:33.228Z,5.43
2023-01-10T08:21:01.012Z,4.97
2023-01-10T08:23:28.218Z,5.20
2023-01-10T08:25:57.698Z,4.97
2023-01-10T08:28:24.879Z,4.67
2023-01-10T08:30:55.543Z,4.90
2023-01-10T08:33:23.847Z,5.13
2023-01-10T08:35:51.843Z,5.20
2023-01-10T08:38:19.091Z,4.50
2023-01-10T08:40:46.252Z,4.90
2023-01-10T08:43:15.003Z,4.80
2023-01-10T08:45:42.315Z,5.40
2023-01-10T08:48:10.237Z,5.40
2023-01-10T08:50:37.471Z,5.93
2023-01-10T08:53:04.816Z,5.07
2023-01-10T08:55:35.247Z,5.67
2023-01-10T08:58:02.937Z,5.20
2023-01-10T09:00:30.292Z,5.30
2023-01-10T09:02:58.052Z,4.90
2023-01-10T09:05:27.305Z,4.93
2023-01-10T09:08:00.326Z,4.77
2023-01-10T09:10:28.805Z,4.70
2023-01-10T09:13:01.557Z,5.00
2023-01-10T09:15:40.935Z,5.67
2023-01-10T09:18:08.332Z,5.60
2023-01-10T09:20:37.259Z,4.83
2023-01-10T09:23:13.852Z,4.90
2023-01-10T09:25:41.027Z,4.93
2023-01-10T09:28:08.237Z,4.63
2023-01-10T09:30:35.768Z,4.70
2023-01-10T09:33:03.921Z,4.40
2023-01-10T09:35:32.677Z,4.70
2023-01-10T09:38:01.335Z,5.00
2023-01-10T09:40:57.328Z,4.97
2023-01-10T09:43:39.224Z,4.63
2023-01-10T09:46:15.514Z,4.57
2023-01-10T09:48:48.906Z,4.87
2023-01-10T09:51:38.326Z,6.30
2023-01-10T09:54:12.777Z,4.63
2023-01-10T09:56:41.070Z,4.97
2023-01-10T09:59:20.966Z,5.13
2023-01-10T10:01:50.422Z,4.60
2023-01-10T10:04:37.246Z,4.40
2023-01-10T10:07:12.536Z,4.47
2023-01-10T10:09:40.154Z,4.50
2023-01-10T10:12:28.582Z,4.80
2023-01-10T10:15:01.847Z,4.50
2023-01-10T10:17:43.164Z,4.80
2023-01-10T10:20:40.229Z,4.40
2023-01-10T10:23:41.315Z,4.30
2023-01-10T10:26:11.584Z,4.23
2023-01-10T10:29:04.495Z,4.77
2023-01-10T10:31:43.737Z,4.50
2023-01-10T10:34:36.639Z,4.60
2023-01-10T10:37:32.977Z,4.20
2023-01-10T10:40:14.795Z,4.70
2023-01-10T10:42:47.197Z,5.43
2023-01-10T10:45:46.150Z,5.77
2023-01-10T10:48:29.607Z,4.70
2023-01-10T10:51:08.683Z,4.90
2023-01-10T10:53:36.626Z,4.87
2023-01-10T10:56:06.499Z,6.60
2023-01-10T10:58:33.886Z,5.33
2023-01-10T11:01:01.684Z,4.43
2023-01-10T11:03:39.870Z,4.27
2023-01-10T11:06:08.831Z,4.20
2023-01-10T11:08:43.526Z,4.47
2023-01-10T11:11:34.312Z,4.10
2023-01-10T11:14:08.449Z,4.40
2023-01-10T11:16:41.786Z,4.67
2023-01-10T11:19:23.919Z,4.50
2023-01-10T11:22:06.504Z,4.00
2023-01-10T11:24:39.380Z,4.10
2023-01-10T11:27:22.788Z,4.10
2023-01-10T11:30:06.799Z,4.40
2023-01-10T11:32:35.428Z,4.50
2023-01-10T11:35:07.908Z,5.07
2023-01-10T11:37:36.302Z,4.47
2023-01-10T11:40:25.723Z,4.60
2023-01-10T11:42:57.056Z,4.33
2023-01-10T11:45:29.212Z,4.03
2023-01-10T11:48:21.373Z,4.30
2023-01-10T11:50:55.837Z,4.10
2023-01-10T11:53:42.279Z,3.77
2023-01-10T11:56:12.809Z,3.83
2023-01-10T11:58:41.163Z,4.70
2023-01-10T12:01:35.203Z,3.80
2023-01-10T12:04:02.918Z,4.07
2023-01-10T12:06:30.507Z,4.07
2023-01-10T12:08:58.233Z,4.30
2023-01-10T12:11:34.154Z,4.87
2023-01-10T12:14:02.739Z,3.93
2023-01-10T12:16:34.582Z,4.17
2023-01-10T12:19:05.412Z,3.60
2023-01-10T12:21:44.323Z,4.40
2023-01-10T12:24:25.312Z,4.00
2023-01-10T12:26:53.864Z,4.10
2023-01-10T12:29:35.240Z,3.83
2023-01-10T12:32:05.056Z,4.07
2023-01-10T12:34:47.887Z,4.07
2023-01-10T12:37:40.111Z,3.80
2023-01-10T12:40:13.106Z,3.80
2023-01-10T12:43:39.419Z,3.90
2023-01-10T12:46:33.476Z,3.93
2023-01-10T12:49:19.147Z,3.80
2023-01-10T12:51:49.752Z,3.90
2023-01-10T12:54:21.022Z,4.20
2023-01-10T12:56:48.621Z,3.73
2023-01-10T12:59:49.393Z,4.10
2023-01-10T13:02:20.550Z,4.30
2023-01-10T13:04:55.849Z,4.00
2023-01-10T13:07:28.550Z,4.10
2023-01-10T13:09:56.312Z,3.97
2023-01-10T13:12:35.332Z,3.80
2023-01-10T13:15:19.938Z,4.20
2023-01-10T13:18:01.997Z,4.37
2023-01-10T13:20:38.280Z,4.30
2023-01-10T13:23:22.032Z,3.70
2023-01-10T13:26:05.135Z,4.07
2023-01-10T13:28:34.783Z,4.40
2023-01-10T13:31:07.650Z,4.67
2023-01-10T13:33:51.044Z,3.90
2023-01-10T13:36:27.543Z,4.07
2023-01-10T13:39:03.970Z,4.40
2023-01-10T13:42:31.231Z,3.80
2023-01-10T13:45:01.536Z,4.07
2023-01-10T13:47:40.832Z,4.43
2023-01-10T13:50:23.447Z,4.30
2023-01-10T13:53:02.794Z,3.97
2023-01-10T13:55:34.723Z,4.00
2023-01-10T13:58:09.140Z,4.47
2023-01-10T14:00:55.315Z,4.77
2023-01-10T14:03:50.507Z,4.30
2023-01-10T14:06:30.643Z,4.10
2023-01-10T14:09:01.482Z,4.20
2023-01-10T14:11:52.972Z,3.90
2023-01-10T14:14:23.284Z,3.57
2023-01-10T14:16:54.657Z,4.17
2023-01-10T14:19:40.871Z,4.10
2023-01-10T14:22:27.402Z,6.50
2023-01-10T14:24:54.996Z,5.10
2023-01-10T14:27:22.967Z,4.30
2023-01-10T14:29:57.043Z,4.60
2023-01-10T14:32:34.968Z,4.10
2023-01-10T14:35:06.448Z,4.20
2023-01-10T14:37:58.546Z,4.27
2023-01-10T14:40:47.626Z,4.20
2023-01-10T14:43:22.671Z,3.90
2023-01-10T14:45:52.610Z,4.00
2023-01-10T14:48:26.908Z,4.10
2023-01-10T14:51:15.795Z,4.20
2023-01-10T14:53:43.056Z,4.30
2023-01-10T14:56:24.680Z,4.40
2023-01-10T14:58:51.910Z,4.80
2023-01-10T15:01:27.736Z,4.23
2023-01-10T15:03:57.091Z,4.10
2023-01-10T15:06:26.058Z,4.07
2023-01-10T15:08:58.725Z,4.10
2023-01-10T15:11:27.450Z,4.03
2023-01-10T15:14:00.128Z,4.10
2023-01-10T15:16:28.655Z,4.23
2023-01-10T15:18:58.942Z,4.00
2023-01-10T15:21:26.321Z,4.00
2023-01-10T15:23:53.541Z,4.03
2023-01-10T15:26:28.736Z,4.30
2023-01-10T15:29:23.160Z,4.60
2023-01-10T15:31:52.140Z,4.27
2023-01-10T15:34:22.656Z,4.10
2023-01-10T15:36:53.678Z,4.20
2023-01-10T15:39:25.226Z,4.10
2023-01-10T15:41:58.519Z,4.17
2023-01-10T15:44:45.659Z,4.00
2023-01-10T15:47:36.513Z,3.93
2023-01-10T15:50:24.022Z,4.50
2023-01-10T15:53:11.583Z,5.03
2023-01-10T15:55:55.533Z,5.00
2023-01-10T15:58:32.727Z,4.63
2023-01-10T16:01:00.483Z,5.43
2023-01-10T16:03:37.621Z,5.47
2023-01-10T16:06:09.777Z,9.27
2023-01-10T16:08:38.645Z,8.67
2023-01-10T16:11:38.967Z,8.73
2023-01-10T16:14:06.063Z,8.53
2023-01-10T16:16:33.410Z,9.30
2023-01-10T16:19:02.708Z,9.97
2023-01-10T16:21:36.456Z,13.17
2023-01-10T16:24:05.152Z,10.97
2023-01-10T16:26:33.256Z,10.17
2023-01-10T16:29:00.380Z,10.10
2023-01-10T16:31:27.628Z,10.53
2023-01-10T16:33:54.813Z,11.03
2023-01-10T16:36:22.070Z,12.13
2023-01-10T16:38:49.341Z,12.73
2023-01-10T16:41:35.357Z,12.30
2023-01-10T16:44:02.716Z,13.60
2023-01-10T16:46:30.213Z,14.77
2023-01-10T16:48:57.467Z,14.30
2023-01-10T16:51:32.736Z,12.63
2023-01-10T16:54:00.118Z,12.60
2023-01-10T16:56:28.949Z,12.40
2023-01-10T16:58:57.174Z,16.43
2023-01-10T17:01:30.061Z,14.10
2023-01-10T17:03:57.960Z,13.37
2023-01-10T17:06:25.172Z,13.67
2023-01-10T17:08:52.394Z,12.90
2023-01-10T17:11:30.247Z,11.77
2023-01-10T17:13:58.491Z,9.90
2023-01-10T17:16:25.682Z,10.50
2023-01-10T17:18:52.958Z,10.80
2023-01-10T17:21:22.467Z,10.73
2023-01-10T17:23:50.321Z,10.00
2023-01-10T17:26:19.516Z,8.70
2023-01-10T17:28:49.482Z,8.67
2023-01-10T17:31:20.372Z,9.00
2023-01-10T17:33:49.103Z,9.80
2023-01-10T17:36:19.109Z,9.77
2023-01-10T17:38:46.678Z,11.90
2023-01-10T17:41:14.184Z,11.80
2023-01-10T17:43:41.343Z,11.10
2023-01-10T17:46:08.568Z,12.23
2023-01-10T17:48:35.949Z,10.83
2023-01-10T17:51:03.885Z,10.57
2023-01-10T17:53:31.398Z,11.30
2023-01-10T17:56:01.008Z,10.60
2023-01-10T17:58:28.747Z,10.23
2023-01-10T18:00:56.138Z,11.50
2023-01-10T18:03:23.666Z,13.10
2023-01-10T18:05:58.544Z,14.03
2023-01-10T18:08:26.279Z,11.67
2023-01-10T18:11:00.382Z,10.17
2023-01-10T18:13:30.384Z,9.63
2023-01-10T18:15:58.462Z,9.73
2023-01-10T18:18:27.808Z,11.03
2023-01-10T18:20:58.054Z,11.63
2023-01-10T18:23:26.746Z,11.70
2023-01-10T18:26:05.332Z,15.40
2023-01-10T18:28:42.490Z,12.97
2023-01-10T18:31:18.603Z,10.83
2023-01-10T18:33:47.328Z,10.17
2023-01-10T18:36:17.646Z,10.67
2023-01-10T18:38:46.036Z,9.93
2023-01-10T18:41:16.170Z,9.13
2023-01-10T18:43:43.378Z,8.47
2023-01-10T18:46:18.342Z,9.67
2023-01-10T18:48:46.778Z,8.90
2023-01-10T18:51:14.754Z,8.63
2023-01-10T18:53:43.122Z,9.23
2023-01-10T18:56:11.428Z,10.53
2023-01-10T18:58:40.731Z,9.90
2023-01-10T19:01:14.251Z,9.87
2023-01-10T19:03:42.270Z,8.67
2023-01-10T19:06:11.846Z,7.37
2023-01-10T19:08:39.491Z,8.17
2023-01-10T19:11:13.945Z,7.97
2023-01-10T19:13:43.972Z,8.13
2023-01-10T19:16:22.078Z,7.17
2023-01-10T19:18:58.174Z,7.47
2023-01-10T19:21:27.107Z,7.33
2023-01-10T19:23:56.517Z,6.90
2023-01-10T19:26:25.197Z,6.10
2023-01-10T19:28:52.530Z,7.07
2023-01-10T19:31:25.934Z,8.63
2023-01-10T19:33:53.825Z,8.60
2023-01-10T19:36:22.973Z,8.83
2023-01-10T19:38:55.615Z,9.27
2023-01-10T19:41:24.000Z,7.90
2023-01-10T19:43:58.577Z,7.43
2023-01-10T19:46:26.621Z,6.90
2023-01-10T19:48:55.750Z,7.03
2023-01-10T19:51:22.956Z,6.53
2023-01-10T19:53:50.395Z,7.30
2023-01-10T19:56:21.911Z,6.60
2023-01-10T19:58:50.313Z,7.43
2023-01-10T20:01:26.182Z,6.47
2023-01-10T20:03:56.489Z,7.80
2023-01-10T20:06:26.615Z,7.60
2023-01-10T20:08:54.938Z,8.07
2023-01-10T20:11:24.224Z,7.60
2023-01-10T20:13:52.451Z,7.40
2023-01-10T20:16:23.511Z,7.53
2023-01-10T20:18:51.886Z,11.33
2023-01-10T20:21:19.916Z,9.77
2023-01-10T20:23:47.738Z,8.20
2023-01-10T20:26:17.737Z,7.83
2023-01-10T20:28:47.297Z,8.97
2023-01-10T20:31:23.316Z,8.43
2023-01-10T20:33:51.109Z,8.43
2023-01-10T20:36:20.976Z,7.30
2023-01-10T20:38:48.393Z,7.17
2023-01-10T20:41:24.877Z,7.83
2023-01-10T20:43:52.902Z,8.77
2023-01-10T20:46:26.262Z,7.83
2023-01-10T20:48:55.593Z,6.93
2023-01-10T20:51:27.217Z,5.90
2023-01-10T20:53:54.812Z,7.50
2023-01-10T20:56:24.682Z,7.77
2023-01-10T20:58:53.025Z,7.37
2023-01-10T21:01:33.702Z,6.83
2023-01-10T21:04:03.474Z,7.50
2023-01-10T21:06:30.793Z,7.60
2023-01-10T21:08:58.022Z,9.73
2023-01-10T21:11:25.232Z,9.40
2023-01-10T21:13:52.405Z,8.40
2023-01-10T21:16:22.005Z,8.20
2023-01-10T21:18:50.451Z,8.40
2023-01-10T21:21:22.521Z,7.17
2023-01-10T21:23:49.885Z,6.93
2023-01-10T21:26:17.170Z,6.23
2023-01-10T21:28:48.979Z,6.43
2023-01-10T21:31:18.796Z,5.57
2023-01-10T21:33:46.326Z,5.70
2023-01-10T21:36:13.886Z,7.17
2023-01-10T21:38:41.630Z,7.53
2023-01-10T21:41:37.274Z,6.40
2023-01-10T21:44:05.464Z,5.90
2023-01-10T21:46:32.852Z,5.90
2023-01-10T21:49:01.533Z,5.93
2023-01-10T21:51:28.725Z,6.23
2023-01-10T21:53:55.902Z,5.60
2023-01-10T21:56:23.119Z,6.40
2023-01-10T21:58:50.339Z,6.63
